Time;durP1;ratioP1;P1;durP2;ratioP2;P2;SDS_P1;SDS_P2;PMS_P1;PMS_P2;Temp;Humidity;BMP_temperature;BMP_pressure;BME280_temperature;BME280_humidity;BME280_pressure;Samples;Min_cycle;Max_cycle;Signal;HPM_P1;HPM_P2
2023/05/06 00:02:17;;;;;;;;;;;;;;;9.77;100.00;101624.09;5135887;28;19915;-75
2023/05/06 00:04:48;;;;;;;;;;;;;;;9.77;100.00;101617.88;5124327;28;19918;-74
2023/05/06 00:07:18;;;;;;;;;;;;;;;9.76;100.00;101621.56;5109170;28;19918;-74
2023/05/06 00:09:49;;;;;;;;;;;;;;;9.75;100.00;101620.72;5123462;28;20001;-74
2023/05/06 00:12:19;;;;;;;;;;;;;;;9.70;100.00;101625.66;5123717;28;20005;-74
2023/05/06 00:14:49;;;;;;;;;;;;;;;9.65;100.00;101624.38;5127581;28;19981;-74
2023/05/06 00:17:20;;;;;;;;;;;;;;;9.58;100.00;101614.22;5141311;28;19914;-74
2023/05/06 00:19:51;;;;;;;;;;;;;;;9.54;100.00;101622.69;5137840;28;20351;-75
2023/05/06 00:22:21;;;;;;;;;;;;;;;9.53;100.00;101626.34;5121690;28;20005;-74
2023/05/06 00:24:51;;;;;;;;;;;;;;;9.49;100.00;101623.13;5142460;28;19914;-75
2023/05/06 00:27:22;;;;;;;;;;;;;;;9.48;100.00;101617.88;5141814;28;19928;-74
2023/05/06 00:29:52;;;;;;;;;;;;;;;9.50;100.00;101622.13;5130617;28;19954;-74
2023/05/06 00:32:22;;;;;;;;;;;;;;;9.45;100.00;101618.19;5142760;28;19921;-74
2023/05/06 00:34:53;;;;;;;;;;;;;;;9.38;100.00;101623.22;5143049;28;19914;-75
2023/05/06 00:37:23;;;;;;;;;;;;;;;9.26;100.00;101627.88;5141345;28;19938;-74
2023/05/06 00:39:54;;;;;;;;;;;;;;;9.18;100.00;101626.88;5142571;28;19918;-74
2023/05/06 00:42:24;;;;;;;;;;;;;;;9.11;100.00;101625.75;5143052;28;20433;-74
2023/05/06 00:44:54;;;;;;;;;;;;;;;9.10;100.00;101624.91;5143112;28;19914;-74
2023/05/06 00:47:25;;;;;;;;;;;;;;;9.10;100.00;101621.38;5141573;28;20398;-74
2023/05/06 00:49:55;;;;;;;;;;;;;;;9.13;100.00;101618.41;5142546;28;19915;-74
2023/05/06 00:52:25;;;;;;;;;;;;;;;9.10;100.00;101619.53;5136277;28;19949;-74
2023/05/06 00:54:56;;;;;;;;;;;;;;;9.07;100.00;101615.28;5142951;28;19918;-74
2023/05/06 00:57:26;;;;;;;;;;;;;;;9.04;100.00;101612.06;5121373;28;19955;-74
2023/05/06 00:59:57;;;;;;;;;;;;;;;8.99;100.00;101607.13;5122547;28;19964;-74
2023/05/06 01:02:27;;;;;;;;;;;;;;;8.92;100.00;101605.13;5123334;28;20284;-74
2023/05/06 01:04:58;;;;;;;;;;;;;;;8.89;100.00;101606.25;5121026;28;20343;-74
2023/05/06 01:07:45;;;;;;;;;;;;;;;8.87;100.00;101604.69;5131030;28;19965;-74
2023/05/06 01:10:20;;;;;;;;;;;;;;;8.83;100.00;101598.75;5136598;28;19947;-74
2023/05/06 01:13:01;;;;;;;;;;;;;;;8.81;100.00;101600.72;5122730;28;19914;-74
2023/05/06 01:15:33;;;;;;;;;;;;;;;8.81;100.00;101600.72;5123100;28;19914;-74
2023/05/06 01:18:09;;;;;;;;;;;;;;;8.78;100.00;101601.00;5124310;28;19914;-74
2023/05/06 01:20:41;;;;;;;;;;;;;;;8.77;100.00;101596.63;5141527;28;19918;-75
2023/05/06 01:23:12;;;;;;;;;;;;;;;8.77;100.00;101596.63;5142265;28;19915;-74
2023/05/06 01:25:43;;;;;;;;;;;;;;;8.75;100.00;101598.59;5141650;28;19915;-74
2023/05/06 01:28:13;;;;;;;;;;;;;;;8.73;100.00;101590.69;5141441;28;19925;-74
2023/05/06 01:30:48;;;;;;;;;;;;;;;8.72;100.00;101598.88;5141766;28;19925;-74
2023/05/06 01:33:34;;;;;;;;;;;;;;;8.65;100.00;101593.22;5133975;28;19996;-74
2023/05/06 01:36:06;;;;;;;;;;;;;;;8.58;100.00;101602.75;5122340;28;19919;-74
2023/05/06 01:38:36;;;;;;;;;;;;;;;8.55;100.00;101603.88;5133143;28;19914;-74
2023/05/06 01:41:07;;;;;;;;;;;;;;;8.54;100.00;101602.19;5141440;28;19944;-74
2023/05/06 01:43:40;;;;;;;;;;;;;;;8.60;100.00;101594.63;5128304;28;19914;-74
2023/05/06 01:46:14;;;;;;;;;;;;;;;8.61;100.00;101605.16;5122575;28;19915;-74
2023/05/06 01:48:46;;;;;;;;;;;;;;;8.58;100.00;101605.41;5128194;28;19926;-74
2023/05/06 01:51:16;;;;;;;;;;;;;;;8.53;100.00;101603.19;5140465;28;19914;-74
2023/05/06 01:53:51;;;;;;;;;;;;;;;8.54;100.00;101614.72;5131315;28;19921;-74
2023/05/06 01:56:29;;;;;;;;;;;;;;;8.57;100.00;101611.75;5145735;28;20343;-74
2023/05/06 01:59:00;;;;;;;;;;;;;;;8.53;100.00;101610.31;5146376;28;20443;-74
2023/05/06 02:01:33;;;;;;;;;;;;;;;8.54;100.00;101612.91;5130484;28;20372;-75
2023/05/06 02:04:03;;;;;;;;;;;;;;;8.53;100.00;101610.31;5126076;28;19918;-75
2023/05/06 02:06:34;;;;;;;;;;;;;;;8.52;100.00;101608.66;5127574;28;19914;-74
2023/05/06 02:09:05;;;;;;;;;;;;;;;8.51;100.00;101613.16;5146277;28;19914;-75
2023/05/06 02:11:35;;;;;;;;;;;;;;;8.51;100.00;101615.81;5144516;28;19918;-74
2023/05/06 02:14:06;;;;;;;;;;;;;;;8.50;100.00;101610.63;5144934;28;19921;-74
2023/05/06 02:16:36;;;;;;;;;;;;;;;8.50;100.00;101610.63;5127081;28;19918;-74
2023/05/06 02:19:07;;;;;;;;;;;;;;;8.50;100.00;101606.13;5137234;28;19914;-75
2023/05/06 02:21:37;;;;;;;;;;;;;;;8.51;100.00;101604.28;5125072;28;20001;-74
2023/05/06 02:24:07;;;;;;;;;;;;;;;8.51;100.00;101613.16;5126083;28;19914;-74
2023/05/06 02:26:38;;;;;;;;;;;;;;;8.48;100.00;101601.88;5124828;28;20012;-74
2023/05/06 02:29:08;;;;;;;;;;;;;;;8.47;100.00;101594.81;5124369;28;20454;-74
2023/05/06 02:31:39;;;;;;;;;;;;;;;8.51;100.00;101594.44;5133898;28;19914;-75
2023/05/06 02:34:09;;;;;;;;;;;;;;;8.54;100.00;101593.31;5145949;28;20282;-75
2023/05/06 02:36:40;;;;;;;;;;;;;;;8.50;100.00;101598.09;5144630;28;19915;-74
2023/05/06 02:39:10;;;;;;;;;;;;;;;8.53;100.00;101588.94;5144237;28;19997;-74
2023/05/06 02:41:41;;;;;;;;;;;;;;;8.51;100.00;101590.91;5133691;28;19925;-74
2023/05/06 02:44:11;;;;;;;;;;;;;;;8.50;100.00;101589.22;5138281;28;19922;-74
2023/05/06 02:46:42;;;;;;;;;;;;;;;8.45;100.00;101596.81;5135351;28;19941;-75
2023/05/06 02:49:12;;;;;;;;;;;;;;;8.39;100.00;101595.50;5138932;28;19926;-74
2023/05/06 02:51:43;;;;;;;;;;;;;;;8.36;100.00;101601.13;5133255;28;19914;-74
2023/05/06 02:54:13;;;;;;;;;;;;;;;8.32;100.00;101600.50;5137685;28;20021;-74
2023/05/06 02:56:45;;;;;;;;;;;;;;;8.32;100.00;101596.97;5125868;28;19921;-74
2023/05/06 02:59:15;;;;;;;;;;;;;;;8.30;100.00;101607.81;5143395;28;19953;-74
2023/05/06 03:01:45;;;;;;;;;;;;;;;8.27;100.00;101605.41;5129426;28;19950;-74
2023/05/06 03:04:16;;;;;;;;;;;;;;;8.24;100.00;101599.50;5127162;28;19938;-75
2023/05/06 03:06:46;;;;;;;;;;;;;;;8.23;100.00;101608.47;5128778;28;19923;-74
2023/05/06 03:09:17;;;;;;;;;;;;;;;8.20;100.00;101603.41;5145557;28;19918;-75
2023/05/06 03:11:47;;;;;;;;;;;;;;;8.20;100.00;101598.91;5126678;28;19922;-74
2023/05/06 03:14:18;;;;;;;;;;;;;;;8.27;100.00;101600.03;5125012;28;19918;-74
2023/05/06 03:16:48;;;;;;;;;;;;;;;8.27;100.00;101599.22;5123654;28;19922;-74
2023/05/06 03:19:18;;;;;;;;;;;;;;;8.27;100.00;101600.03;5136854;28;20005;-75
2023/05/06 03:21:48;;;;;;;;;;;;;;;8.27;100.00;101600.03;5124237;28;19923;-74
2023/05/06 03:24:19;;;;;;;;;;;;;;;8.32;100.00;101603.16;5136546;28;19914;-74
2023/05/06 03:26:49;;;;;;;;;;;;;;;8.35;100.00;101602.06;5123607;28;19925;-75
2023/05/06 03:29:20;;;;;;;;;;;;;;;8.32;100.00;101603.16;5107432;28;19926;-74
2023/05/06 03:31:50;;;;;;;;;;;;;;;8.34;100.00;101605.72;5124138;28;19922;-74
2023/05/06 03:34:20;;;;;;;;;;;;;;;8.31;100.00;101603.31;5127772;28;19920;-74
2023/05/06 03:36:51;;;;;;;;;;;;;;;8.28;100.00;101600.88;5143647;28;19936;-74
2023/05/06 03:39:21;;;;;;;;;;;;;;;8.23;100.00;101609.34;5144593;28;19944;-75
2023/05/06 03:41:51;;;;;;;;;;;;;;;8.19;100.00;101601.72;5143876;28;19940;-75
2023/05/06 03:44:22;;;;;;;;;;;;;;;8.27;100.00;101615.25;5143047;28;19949;-75
2023/05/06 03:46:52;;;;;;;;;;;;;;;8.24;100.00;101613.69;5143299;28;19929;-74
2023/05/06 03:49:22;;;;;;;;;;;;;;;8.21;100.00;101613.09;5144105;28;20045;-74
2023/05/06 03:51:53;;;;;;;;;;;;;;;8.18;100.00;101610.69;5138593;28;19997;-74
2023/05/06 03:54:23;;;;;;;;;;;;;;;8.17;100.00;101609.00;5143895;28;19925;-74
2023/05/06 03:56:54;;;;;;;;;;;;;;;8.19;100.00;101604.38;5141678;28;19915;-74
2023/05/06 03:59:24;;;;;;;;;;;;;;;8.18;100.00;101606.22;5134156;28;19915;-74
2023/05/06 04:01:55;;;;;;;;;;;;;;;8.19;100.00;101602.56;5140545;28;20008;-74
2023/05/06 04:04:26;;;;;;;;;;;;;;;8.23;100.00;101608.47;5143890;28;19914;-74
2023/05/06 04:06:56;;;;;;;;;;;;;;;8.27;100.00;101607.22;5142569;28;19918;-74
2023/05/06 04:09:26;;;;;;;;;;;;;;;8.26;100.00;101611.72;5143570;28;19940;-74
2023/05/06 04:11:57;;;;;;;;;;;;;;;8.21;100.00;101605.09;5143496;28;19925;-74
2023/05/06 04:14:27;;;;;;;;;;;;;;;8.23;100.00;101612.00;5143688;28;19961;-74
2023/05/06 04:16:57;;;;;;;;;;;;;;;8.25;100.00;101612.72;5135368;28;20337;-74
2023/05/06 04:19:28;;;;;;;;;;;;;;;8.28;100.00;101616.94;5137193;28;19997;-74
2023/05/06 04:21:58;;;;;;;;;;;;;;;8.25;100.00;101618.06;5134417;28;20005;-74
2023/05/06 04:24:30;;;;;;;;;;;;;;;8.26;100.00;101613.56;5123761;28;19935;-74
2023/05/06 04:27:01;;;;;;;;;;;;;;;8.26;100.00;101609.06;5121527;28;19926;-74
2023/05/06 04:29:32;;;;;;;;;;;;;;;8.27;100.00;101618.75;5127769;28;20387;-74
2023/05/06 04:32:03;;;;;;;;;;;;;;;8.29;100.00;101619.50;5142842;28;19925;-74
2023/05/06 04:34:35;;;;;;;;;;;;;;;8.29;100.00;101622.16;5143468;28;19914;-74
2023/05/06 04:37:05;;;;;;;;;;;;;;;8.31;100.00;101619.34;5141114;28;20335;-74
2023/05/06 04:39:38;;;;;;;;;;;;;;;8.31;100.00;101614.84;5129297;28;19960;-74
2023/05/06 04:42:08;;;;;;;;;;;;;;;8.31;100.00;101622.03;5141929;28;19922;-74
2023/05/06 04:44:38;;;;;;;;;;;;;;;8.36;100.00;101626.97;5134481;28;19918;-74
2023/05/06 04:47:09;;;;;;;;;;;;;;;8.38;100.00;101622.38;5121484;28;20002;-74
2023/05/06 04:49:40;;;;;;;;;;;;;;;8.44;100.00;101621.84;5121884;28;19914;-74
2023/05/06 04:52:11;;;;;;;;;;;;;;;8.47;100.00;101627.75;5135255;28;19922;-74
2023/05/06 04:54:41;;;;;;;;;;;;;;;8.49;100.00;101636.50;5142675;28;19925;-74
2023/05/06 04:57:11;;;;;;;;;;;;;;;8.55;100.00;101638.66;5141770;28;19961;-74
2023/05/06 04:59:42;;;;;;;;;;;;;;;8.61;100.00;101634.59;5142224;28;19989;-74
2023/05/06 05:02:12;;;;;;;;;;;;;;;8.67;100.00;101642.06;5142723;28;19968;-74
2023/05/06 05:04:42;;;;;;;;;;;;;;;8.72;100.00;101642.50;5142747;28;20284;-74
2023/05/06 05:07:13;;;;;;;;;;;;;;;8.81;100.00;101643.53;5138991;28;19922;-74
2023/05/06 05:09:44;;;;;;;;;;;;;;;8.91;100.00;101651.59;5137102;28;19922;-74
2023/05/06 05:12:14;;;;;;;;;;;;;;;8.99;100.00;101641.91;5141704;28;20537;-74
2023/05/06 05:14:46;;;;;;;;;;;;;;;9.07;100.00;101652.78;5120076;28;19969;-74
2023/05/06 05:17:16;;;;;;;;;;;;;;;9.15;100.00;101654.78;5119387;28;19915;-74
2023/05/06 05:19:46;;;;;;;;;;;;;;;9.25;100.00;101649.44;5136398;28;20379;-74
2023/05/06 05:22:17;;;;;;;;;;;;;;;9.39;100.00;101654.41;5128415;28;19919;-74
2023/05/06 05:24:47;;;;;;;;;;;;;;;9.51;100.00;101650.59;5119847;28;19919;-74
2023/05/06 05:27:19;;;;;;;;;;;;;;;9.65;100.00;101653.84;5119258;28;19923;-74
2023/05/06 05:29:49;;;;;;;;;;;;;;;9.76;100.00;101653.72;5119380;28;19919;-74
2023/05/06 05:32:20;;;;;;;;;;;;;;;9.87;100.00;101650.88;5120004;28;19965;-74
2023/05/06 05:34:51;;;;;;;;;;;;;;;10.01;100.00;101653.13;5119975;28;19925;-74
2023/05/06 05:37:21;;;;;;;;;;;;;;;10.18;100.00;101656.06;5119286;28;19921;-74
2023/05/06 05:39:51;;;;;;;;;;;;;;;10.31;100.00;101660.16;5127049;28;19918;-74
2023/05/06 05:42:22;;;;;;;;;;;;;;;10.42;100.00;101653.78;5136868;28;19910;-74
2023/05/06 05:44:52;;;;;;;;;;;;;;;10.54;100.00;101663.38;5119339;28;19921;-74
2023/05/06 05:47:23;;;;;;;;;;;;;;;10.70;100.00;101664.59;5118415;28;19926;-74
2023/05/06 05:49:53;;;;;;;;;;;;;;;10.94;100.00;101662.19;5119520;28;20002;-74
2023/05/06 05:52:23;;;;;;;;;;;;;;;11.32;100.00;101660.28;5125117;28;19914;-74
2023/05/06 05:54:54;;;;;;;;;;;;;;;11.90;100.00;101673.34;5119393;28;20628;-74
2023/05/06 05:57:24;;;;;;;;;;;;;;;12.48;100.00;101678.13;5138087;28;20563;-75
2023/05/06 05:59:54;;;;;;;;;;;;;;;12.99;100.00;101671.00;5125724;28;19921;-75
2023/05/06 06:02:25;;;;;;;;;;;;;;;13.41;100.00;101665.63;5120576;28;20009;-75
2023/05/06 06:04:56;;;;;;;;;;;;;;;13.99;100.00;101661.13;5119448;28;20346;-74
2023/05/06 06:07:26;;;;;;;;;;;;;;;14.39;100.00;101654.84;5128373;28;19918;-75
2023/05/06 06:09:56;;;;;;;;;;;;;;;14.60;100.00;101643.50;5122430;28;19919;-74
2023/05/06 06:12:27;;;;;;;;;;;;;;;14.83;100.00;101653.59;5118856;28;20029;-75
2023/05/06 06:14:57;;;;;;;;;;;;;;;15.05;100.00;101652.81;5131923;28;19945;-75
2023/05/06 06:17:28;;;;;;;;;;;;;;;15.34;100.00;101652.16;5118644;28;19919;-75
2023/05/06 06:20:01;;;;;;;;;;;;;;;15.80;100.00;101644.91;5132039;28;19914;-75
2023/05/06 06:22:32;;;;;;;;;;;;;;;16.40;100.00;101642.34;5119250;28;19987;-75
2023/05/06 06:25:02;;;;;;;;;;;;;;;16.73;100.00;101638.31;5119476;28;20432;-75
2023/05/06 06:27:33;;;;;;;;;;;;;;;17.16;100.00;101641.13;5133078;28;20036;-75
2023/05/06 06:30:04;;;;;;;;;;;;;;;17.38;100.00;101636.59;5130606;28;20386;-75
2023/05/06 06:32:34;;;;;;;;;;;;;;;17.44;100.00;101637.69;5119573;28;19961;-75
2023/05/06 06:35:05;;;;;;;;;;;;;;;17.82;100.00;101639.19;5122051;28;20001;-75
2023/05/06 06:37:35;;;;;;;;;;;;;;;17.91;100.00;101631.72;5122208;28;19914;-75
2023/05/06 06:40:06;;;;;;;;;;;;;;;18.24;100.00;101640.13;5132556;28;19921;-75
2023/05/06 06:42:37;;;;;;;;;;;;;;;18.61;100.00;101638.91;5136852;28;19921;-76
2023/05/06 06:45:07;;;;;;;;;;;;;;;19.13;100.00;101640.25;5122304;28;19918;-75
2023/05/06 06:47:38;;;;;;;;;;;;;;;18.66;100.00;101640.19;5121883;28;19978;-75
2023/05/06 06:50:09;;;;;;;;;;;;;;;18.49;100.00;101645.13;5135736;28;19918;-75
2023/05/06 06:52:39;;;;;;;;;;;;;;;18.46;100.00;101640.91;5131283;28;19915;-75
2023/05/06 06:55:10;;;;;;;;;;;;;;;18.49;100.00;101639.69;5122985;28;19918;-75
2023/05/06 06:57:40;;;;;;;;;;;;;;;18.76;100.00;101648.84;5121767;28;20013;-75
2023/05/06 07:00:11;;;;;;;;;;;;;;;19.35;100.00;101646.38;5135320;28;19914;-75
2023/05/06 07:02:41;;;;;;;;;;;;;;;19.74;100.00;101650.28;5133236;28;19914;-76
2023/05/06 07:05:11;;;;;;;;;;;;;;;19.72;100.00;101644.19;5142542;28;19981;-76
2023/05/06 07:07:42;;;;;;;;;;;;;;;19.53;100.00;101644.97;5141380;28;19989;-75
2023/05/06 07:10:12;;;;;;;;;;;;;;;19.41;100.00;101642.84;5123510;28;19946;-75
2023/05/06 07:12:42;;;;;;;;;;;;;;;19.78;100.00;101648.81;5122690;28;20556;-75
2023/05/06 07:15:13;;;;;;;;;;;;;;;20.12;100.00;101652.38;5141386;28;20010;-75
2023/05/06 07:17:43;;;;;;;;;;;;;;;20.41;100.00;101651.09;5128622;28;20072;-75
2023/05/06 07:20:14;;;;;;;;;;;;;;;20.41;100.00;101651.09;5134995;28;20394;-75
2023/05/06 07:22:45;;;;;;;;;;;;;;;21.21;100.00;101649.00;5138505;28;20382;-76
2023/05/06 07:25:16;;;;;;;;;;;;;;;21.21;100.00;101643.56;5130900;28;19918;-75
2023/05/06 07:27:46;;;;;;;;;;;;;;;21.85;100.00;101641.72;5138803;28;19929;-76
2023/05/06 07:30:18;;;;;;;;;;;;;;;21.91;100.00;101649.88;5122061;28;19925;-75
2023/05/06 07:32:49;;;;;;;;;;;;;;;21.54;100.00;101648.03;5157744;23;20753;-78
2023/05/06 07:35:19;;;;;;;;;;;;;;;21.09;100.00;101642.56;5161038;28;19968;-77
2023/05/06 07:37:50;;;;;;;;;;;;;;;21.03;100.00;101640.69;5158314;28;20025;-77
2023/05/06 07:40:20;;;;;;;;;;;;;;;21.10;100.00;101638.78;5161030;28;19914;-77
2023/05/06 07:42:51;;;;;;;;;;;;;;;21.17;100.00;101632.22;5161013;28;20299;-77
2023/05/06 07:45:23;;;;;;;;;;;;;;;21.29;100.00;101635.13;5159765;28;19921;-78
2023/05/06 07:47:53;;;;;;;;;;;;;;;21.00;100.00;101632.97;5160347;28;19921;-77
2023/05/06 07:50:24;;;;;;;;;;;;;;;20.82;100.00;101637.19;5161120;28;19914;-78
2023/05/06 07:52:54;;;;;;;;;;;;;;;20.64;100.00;101635.19;5160321;28;20056;-78
2023/05/06 07:55:25;;;;;;;;;;;;;;;20.57;100.00;101641.69;5162156;28;20451;-78
2023/05/06 07:57:55;;;;;;;;;;;;;;;20.29;100.00;101642.75;5139422;28;19977;-78
2023/05/06 08:00:26;;;;;;;;;;;;;;;19.81;100.00;101651.13;5159089;28;20375;-76
2023/05/06 08:02:56;;;;;;;;;;;;;;;19.32;100.00;101645.94;5161238;28;19909;-77
2023/05/06 08:05:27;;;;;;;;;;;;;;;18.96;100.00;101649.78;5140739;28;19918;-77
2023/05/06 08:07:57;;;;;;;;;;;;;;;19.39;100.00;101636.78;5169597;28;19921;-79
2023/05/06 08:10:28;;;;;;;;;;;;;;;20.04;100.00;101644.44;5161622;28;20359;-80
2023/05/06 08:12:58;;;;;;;;;;;;;;;20.31;100.00;101645.25;5159088;28;19923;-79
2023/05/06 08:15:28;;;;;;;;;;;;;;;19.82;100.00;101649.22;5160578;28;20364;-77
2023/05/06 08:17:59;;;;;;;;;;;;;;;19.95;100.00;101651.13;5159994;28;19914;-77
2023/05/06 08:20:29;;;;;;;;;;;;;;;20.25;100.00;101652.41;5156332;28;20275;-77
2023/05/06 08:23:00;;;;;;;;;;;;;;;20.42;100.00;101644.59;5159444;28;20367;-77
2023/05/06 08:25:30;;;;;;;;;;;;;;;20.04;100.00;101650.72;5160615;28;19921;-77
2023/05/06 08:28:01;;;;;;;;;;;;;;;19.91;100.00;101657.00;5158417;28;19956;-76
2023/05/06 08:30:31;;;;;;;;;;;;;;;20.10;100.00;101649.88;5160294;28;20234;-77
2023/05/06 08:33:02;;;;;;;;;;;;;;;20.15;100.00;101650.09;5158014;28;19924;-78
2023/05/06 08:35:32;;;;;;;;;;;;;;;19.81;100.00;101655.72;5158385;28;20299;-77
2023/05/06 08:38:02;;;;;;;;;;;;;;;20.06;100.00;101661.41;5158705;28;20000;-77
2023/05/06 08:40:33;;;;;;;;;;;;;;;20.62;100.00;101659.06;5160193;28;19961;-77
2023/05/06 08:43:04;;;;;;;;;;;;;;;20.92;100.00;101647.66;5159033;28;19914;-77
2023/05/06 08:45:34;;;;;;;;;;;;;;;21.16;100.00;101648.81;5159022;28;19968;-78
2023/05/06 08:48:05;;;;;;;;;;;;;;;20.75;100.00;101654.66;5159093;28;19994;-78
2023/05/06 08:50:39;;;;;;;;;;;;;;;20.97;100.00;101642.38;5160045;28;20571;-77
2023/05/06 08:53:11;;;;;;;;;;;;;;;21.73;100.00;101644.31;5159896;28;19936;-77
2023/05/06 08:55:42;;;;;;;;;;;;;;;22.12;100.00;101640.47;5159879;28;19917;-78
2023/05/06 08:58:14;;;;;;;;;;;;;;;22.00;100.00;101630.47;5158247;28;19922;-78
2023/05/06 09:00:47;;;;;;;;;;;;;;;22.00;100.00;101642.25;5158319;28;22107;-77
2023/05/06 09:03:17;;;;;;;;;;;;;;;21.93;100.00;101631.34;5142930;28;19969;-78
2023/05/06 09:05:48;;;;;;;;;;;;;;;21.81;100.00;101635.88;5159777;28;19925;-78
2023/05/06 09:08:18;;;;;;;;;;;;;;;21.90;100.00;101631.81;5158156;28;19969;-77
2023/05/06 09:10:49;;;;;;;;;;;;;;;22.60;100.00;101638.97;5159634;28;20522;-77
2023/05/06 09:13:20;;;;;;;;;;;;;;;22.62;100.00;101642.31;5159003;28;20014;-77
2023/05/06 09:15:52;;;;;;;;;;;;;;;23.14;100.00;101631.81;5160021;28;19933;-77
2023/05/06 09:18:24;;;;;;;;;;;;;;;23.24;100.00;101629.34;5158955;28;19921;-77
2023/05/06 09:20:55;;;;;;;;;;;;;;;22.85;100.00;101634.28;5160110;28;19917;-77
2023/05/06 09:23:27;;;;;;;;;;;;;;;23.07;100.00;101622.88;5159253;28;20257;-77
2023/05/06 09:25:58;;;;;;;;;;;;;;;23.53;100.00;101628.53;5159710;28;19925;-77
2023/05/06 09:28:31;;;;;;;;;;;;;;;22.21;100.00;101630.94;5143020;28;19926;-77
2023/05/06 09:31:02;;;;;;;;;;;;;;;21.92;100.00;101624.22;5159773;28;19918;-77
2023/05/06 09:33:35;;;;;;;;;;;;;;;22.89;100.00;101627.31;5159976;28;19924;-77
2023/05/06 09:36:06;;;;;;;;;;;;;;;23.03;100.00;101621.66;5159066;28;19914;-77
2023/05/06 09:38:36;;;;;;;;;;;;;;;23.50;100.00;101615.31;5156741;28;19972;-77
2023/05/06 09:41:08;;;;;;;;;;;;;;;23.16;100.00;101618.75;5159261;28;19964;-77
2023/05/06 09:43:43;;;;;;;;;;;;;;;22.89;100.00;101619.09;5161137;28;19945;-79
2023/05/06 09:46:15;;;;;;;;;;;;;;;21.52;100.00;101610.03;5146955;28;20000;-78
2023/05/06 09:48:47;;;;;;;;;;;;;;;21.67;100.00;101621.47;5152360;28;20021;-77
2023/05/06 09:51:21;;;;;;;;;;;;;;;21.13;100.00;101614.63;5129567;28;19918;-77
2023/05/06 09:53:52;;;;;;;;;;;;;;;21.26;100.00;101615.63;5153293;28;19993;-77
2023/05/06 09:56:23;;;;;;;;;;;;;;;21.43;100.00;101612.16;5151142;28;19915;-77
2023/05/06 09:58:54;;;;;;;;;;;;;;;21.20;100.00;101609.97;5150286;28;19997;-78
2023/05/06 10:01:25;;;;;;;;;;;;;;;21.35;100.00;101604.25;5163759;28;20004;-77
2023/05/06 10:03:58;;;;;;;;;;;;;;;21.61;100.00;101610.59;5160522;28;20055;-76
2023/05/06 10:06:28;;;;;;;;;;;;;;;21.08;100.00;101605.41;5158121;28;19914;-78
2023/05/06 10:09:00;;;;;;;;;;;;;;;21.40;100.00;101603.59;5161945;28;19918;-77
2023/05/06 10:11:30;;;;;;;;;;;;;;;21.60;100.00;101608.94;5162879;28;19932;-77
2023/05/06 10:14:01;;;;;;;;;;;;;;;21.51;100.00;101602.06;5162531;28;19917;-78
2023/05/06 10:16:34;;;;;;;;;;;;;;;21.58;100.00;101600.09;5165158;28;19921;-79
2023/05/06 10:19:05;;;;;;;;;;;;;;;20.82;100.00;101603.66;5164546;28;19914;-77
2023/05/06 10:21:38;;;;;;;;;;;;;;;21.02;100.00;101592.66;5164001;28;19918;-77
2023/05/06 10:24:10;;;;;;;;;;;;;;;21.49;100.00;101588.63;5141577;28;19918;-77
2023/05/06 10:26:41;;;;;;;;;;;;;;;21.56;100.00;101583.97;5178542;28;19914;-77
2023/05/06 10:29:12;;;;;;;;;;;;;;;21.41;100.00;101587.00;5163499;28;19914;-78
2023/05/06 10:31:45;;;;;;;;;;;;;;;21.59;100.00;101588.16;5163502;28;19924;-77
2023/05/06 10:34:18;;;;;;;;;;;;;;;21.83;100.00;101592.75;5162997;28;19925;-77
2023/05/06 10:36:52;;;;;;;;;;;;;;;21.97;100.00;101585.31;5161979;28;19922;-77
2023/05/06 10:39:22;;;;;;;;;;;;;;;21.60;100.00;101585.19;5163502;28;20386;-77
2023/05/06 10:41:53;;;;;;;;;;;;;;;21.56;100.00;101580.41;5161882;28;20011;-77
2023/05/06 10:44:42;;;;;;;;;;;;;;;21.34;100.00;101580.75;5161736;28;19913;-77
2023/05/06 10:47:12;;;;;;;;;;;;;;;21.38;100.00;101579.25;5163629;28;19993;-77
2023/05/06 10:49:44;;;;;;;;;;;;;;;21.80;100.00;101576.84;5163573;28;19917;-80
2023/05/06 10:52:16;;;;;;;;;;;;;;;22.05;100.00;101567.81;5163115;28;19917;-78
2023/05/06 10:54:49;;;;;;;;;;;;;;;22.18;100.00;101571.25;5163916;28;19990;-78
2023/05/06 10:57:25;;;;;;;;;;;;;;;21.67;100.00;101569.59;5161961;28;19920;-78
2023/05/06 10:59:55;;;;;;;;;;;;;;;21.67;100.00;101564.13;5160971;28;19914;-77
2023/05/06 11:02:28;;;;;;;;;;;;;;;21.60;100.00;101568.81;5177875;28;19920;-77
2023/05/06 11:05:00;;;;;;;;;;;;;;;21.56;100.00;101561.28;5160422;28;19914;-77
2023/05/06 11:07:30;;;;;;;;;;;;;;;21.50;100.00;101565.75;5163079;28;20287;-77
2023/05/06 11:10:05;;;;;;;;;;;;;;;21.75;100.00;101563.03;5159000;28;19918;-77
2023/05/06 11:12:47;;;;;;;;;;;;;;;21.40;100.00;101558.03;5161990;28;20088;-77
2023/05/06 11:15:20;;;;;;;;;;;;;;;21.75;100.00;101554.84;5162318;28;19918;-77
2023/05/06 11:17:51;;;;;;;;;;;;;;;21.26;100.00;101550.97;5159627;28;19917;-77
2023/05/06 11:20:24;;;;;;;;;;;;;;;21.34;100.00;101552.63;5158764;28;20362;-77
2023/05/06 11:22:55;;;;;;;;;;;;;;;21.13;100.00;101551.03;5159762;28;19925;-77
2023/05/06 11:25:47;;;;;;;;;;;;;;;21.24;100.00;101552.25;5143484;28;19914;-77
2023/05/06 11:28:17;;;;;;;;;;;;;;;21.02;100.00;101546.28;5161451;28;19922;-77
2023/05/06 11:30:53;;;;;;;;;;;;;;;21.07;100.00;101544.56;5160528;28;20368;-77
2023/05/06 11:33:26;;;;;;;;;;;;;;;21.29;100.00;101541.50;5144681;28;19922;-77
2023/05/06 11:35:58;;;;;;;;;;;;;;;21.43;100.00;101543.09;5160954;28;19957;-77
2023/05/06 11:38:42;;;;;;;;;;;;;;;21.75;100.00;101541.19;5160712;28;19980;-76
2023/05/06 11:41:15;;;;;;;;;;;;;;;21.67;100.00;101541.44;5158589;28;19918;-77
2023/05/06 11:43:46;;;;;;;;;;;;;;;21.68;100.00;101538.47;5160764;28;19914;-77
2023/05/06 11:46:18;;;;;;;;;;;;;;;22.15;100.00;101544.41;5159754;28;19937;-77
2023/05/06 11:48:50;;;;;;;;;;;;;;;22.14;100.00;101541.88;5159648;28;19922;-77
2023/05/06 11:51:21;;;;;;;;;;;;;;;22.47;100.00;101544.25;5160693;28;19914;-77
2023/05/06 11:53:52;;;;;;;;;;;;;;;22.51;100.00;101541.91;5161436;28;20790;-77
2023/05/06 11:56:24;;;;;;;;;;;;;;;22.60;100.00;101541.38;5161472;28;19925;-77
2023/05/06 11:58:55;;;;;;;;;;;;;;;22.56;100.00;101539.31;5158949;28;20005;-77
2023/05/06 12:01:25;;;;;;;;;;;;;;;22.39;100.00;101539.06;5159884;28;19914;-77
2023/05/06 12:03:56;;;;;;;;;;;;;;;22.46;100.00;101537.13;5158525;28;20299;-77
2023/05/06 12:06:45;;;;;;;;;;;;;;;22.98;100.00;101546.56;5157393;28;20283;-76
2023/05/06 12:09:15;;;;;;;;;;;;;;;22.96;100.00;101540.50;5158206;28;19918;-76
2023/05/06 12:11:46;;;;;;;;;;;;;;;23.36;100.00;101541.81;5157545;28;19921;-76
2023/05/06 12:14:17;;;;;;;;;;;;;;;23.17;100.00;101544.63;5157925;28;19917;-76
2023/05/06 12:16:47;;;;;;;;;;;;;;;23.00;100.00;101540.88;5157289;28;19921;-76
2023/05/06 12:19:18;;;;;;;;;;;;;;;22.83;100.00;101543.38;5158819;28;20041;-76
2023/05/06 12:21:48;;;;;;;;;;;;;;;22.45;100.00;101535.44;5158320;28;19925;-76
2023/05/06 12:24:28;;;;;;;;;;;;;;;22.74;100.00;101531.06;5157768;28;20916;-77
2023/05/06 12:26:59;;;;;;;;;;;;;;;22.61;100.00;101540.28;5158870;28;19925;-78
2023/05/06 12:29:31;;;;;;;;;;;;;;;21.78;100.00;101535.25;5162983;28;19918;-77
2023/05/06 12:32:12;;;;;;;;;;;;;;;22.28;100.00;101548.03;5166590;28;20210;-79
2023/05/06 12:34:42;;;;;;;;;;;;;;;22.32;100.00;101544.63;5158379;28;19922;-78
2023/05/06 12:37:23;;;;;;;;;;;;;;;22.45;100.00;101544.47;5153590;28;19924;-76
2023/05/06 12:39:53;;;;;;;;;;;;;;;22.17;100.00;101552.34;5156732;28;20492;-77
2023/05/06 12:42:24;;;;;;;;;;;;;;;22.20;100.00;101541.81;5158666;28;19918;-77
2023/05/06 12:44:55;;;;;;;;;;;;;;;22.22;100.00;101545.16;5156982;28;19921;-76
2023/05/06 12:47:25;;;;;;;;;;;;;;;21.98;100.00;101544.09;5155073;28;19926;-76
2023/05/06 12:49:57;;;;;;;;;;;;;;;21.89;100.00;101547.38;5156790;28;19975;-78
2023/05/06 12:52:28;;;;;;;;;;;;;;;21.93;100.00;101552.13;5157636;28;19964;-77